sensor_id;sensor_type;location;lat;lon;timestamp;P1;durP1;ratioP1;P2;durP2;ratioP2
1837;SDS011;918;50.796;6.772;2022-09-13T00:01:41;6.33;;;3.00;;
1837;SDS011;918;50.796;6.772;2022-09-13T00:04:06;3.20;;;2.77;;
1837;SDS011;918;50.796;6.772;2022-09-13T00:06:32;3.73;;;3.53;;
1837;SDS011;918;50.796;6.772;2022-09-13T00:08:59;3.33;;;3.10;;
1837;SDS011;918;50.796;6.772;2022-09-13T00:11:26;3.70;;;3.40;;
1837;SDS011;918;50.796;6.772;2022-09-13T00:13:52;3.07;;;2.70;;
1837;SDS011;918;50.796;6.772;2022-09-13T00:16:19;3.43;;;3.23;;
1837;SDS011;918;50.796;6.772;2022-09-13T00:18:46;3.10;;;2.90;;
1837;SDS011;918;50.796;6.772;2022-09-13T00:21:13;3.40;;;3.20;;
1837;SDS011;918;50.796;6.772;2022-09-13T00:23:42;3.77;;;3.47;;
1837;SDS011;918;50.796;6.772;2022-09-13T00:26:10;3.80;;;3.50;;
1837;SDS011;918;50.796;6.772;2022-09-13T00:28:36;3.40;;;3.20;;
1837;SDS011;918;50.796;6.772;2022-09-13T00:31:03;3.50;;;3.20;;
1837;SDS011;918;50.796;6.772;2022-09-13T00:33:29;4.17;;;3.80;;
1837;SDS011;918;50.796;6.772;2022-09-13T00:35:54;4.80;;;4.40;;
1837;SDS011;918;50.796;6.772;2022-09-13T00:38:20;5.50;;;5.10;;
1837;SDS011;918;50.796;6.772;2022-09-13T00:40:45;6.50;;;6.00;;
1837;SDS011;918;50.796;6.772;2022-09-13T00:43:11;5.03;;;4.63;;
1837;SDS011;918;50.796;6.772;2022-09-13T00:45:41;4.00;;;3.60;;
1837;SDS011;918;50.796;6.772;2022-09-13T00:48:07;3.80;;;3.50;;
1837;SDS011;918;50.796;6.772;2022-09-13T00:50:39;3.60;;;3.40;;
1837;SDS011;918;50.796;6.772;2022-09-13T00:53:07;4.17;;;3.33;;
1837;SDS011;918;50.796;6.772;2022-09-13T00:55:36;4.30;;;2.73;;
1837;SDS011;918;50.796;6.772;2022-09-13T00:58:05;2.83;;;2.70;;
1837;SDS011;918;50.796;6.772;2022-09-13T01:00:33;3.83;;;3.53;;
1837;SDS011;918;50.796;6.772;2022-09-13T01:03:00;4.00;;;3.70;;
1837;SDS011;918;50.796;6.772;2022-09-13T01:05:27;3.27;;;3.07;;
1837;SDS011;918;50.796;6.772;2022-09-13T01:07:54;3.57;;;3.27;;
1837;SDS011;918;50.796;6.772;2022-09-13T01:10:20;2.90;;;2.70;;
1837;SDS011;918;50.796;6.772;2022-09-13T01:12:54;3.27;;;3.00;;
1837;SDS011;918;50.796;6.772;2022-09-13T01:15:21;3.17;;;2.97;;
1837;SDS011;918;50.796;6.772;2022-09-13T01:17:47;2.93;;;2.73;;
1837;SDS011;918;50.796;6.772;2022-09-13T01:20:13;3.43;;;3.23;;
1837;SDS011;918;50.796;6.772;2022-09-13T01:28:36;3.07;;;2.80;;
1837;SDS011;918;50.796;6.772;2022-09-13T01:33:53;3.10;;;2.90;;
1837;SDS011;918;50.796;6.772;2022-09-13T01:39:17;3.20;;;3.00;;
1837;SDS011;918;50.796;6.772;2022-09-13T01:44:58;3.50;;;3.20;;
1837;SDS011;918;50.796;6.772;2022-09-13T01:47:26;3.23;;;2.93;;
1837;SDS011;918;50.796;6.772;2022-09-13T01:52:41;3.17;;;2.97;;
1837;SDS011;918;50.796;6.772;2022-09-13T01:55:21;3.47;;;3.27;;
1837;SDS011;918;50.796;6.772;2022-09-13T02:00:35;3.70;;;3.40;;
1837;SDS011;918;50.796;6.772;2022-09-13T02:03:03;3.57;;;3.27;;
1837;SDS011;918;50.796;6.772;2022-09-13T02:08:30;3.60;;;3.27;;
1837;SDS011;918;50.796;6.772;2022-09-13T02:11:10;3.73;;;3.53;;
1837;SDS011;918;50.796;6.772;2022-09-13T02:13:39;3.70;;;3.40;;
1837;SDS011;918;50.796;6.772;2022-09-13T02:16:10;3.83;;;3.63;;
1837;SDS011;918;50.796;6.772;2022-09-13T02:18:40;3.87;;;3.53;;
1837;SDS011;918;50.796;6.772;2022-09-13T02:21:08;4.10;;;3.80;;
1837;SDS011;918;50.796;6.772;2022-09-13T02:23:40;3.87;;;3.67;;
1837;SDS011;918;50.796;6.772;2022-09-13T02:26:16;3.60;;;3.30;;
1837;SDS011;918;50.796;6.772;2022-09-13T02:28:43;3.43;;;3.23;;
1837;SDS011;918;50.796;6.772;2022-09-13T02:31:12;3.40;;;3.20;;
1837;SDS011;918;50.796;6.772;2022-09-13T02:33:43;3.97;;;3.67;;
1837;SDS011;918;50.796;6.772;2022-09-13T02:36:14;3.70;;;3.50;;
1837;SDS011;918;50.796;6.772;2022-09-13T02:41:34;3.77;;;3.50;;
1837;SDS011;918;50.796;6.772;2022-09-13T02:44:10;3.50;;;3.30;;
1837;SDS011;918;50.796;6.772;2022-09-13T02:55:20;3.90;;;3.70;;
1837;SDS011;918;50.796;6.772;2022-09-13T02:57:51;3.80;;;3.60;;
1837;SDS011;918;50.796;6.772;2022-09-13T03:00:19;3.70;;;3.50;;
1837;SDS011;918;50.796;6.772;2022-09-13T03:02:45;5.43;;;3.67;;
1837;SDS011;918;50.796;6.772;2022-09-13T03:05:11;3.23;;;3.03;;
1837;SDS011;918;50.796;6.772;2022-09-13T03:07:37;3.90;;;3.70;;
1837;SDS011;918;50.796;6.772;2022-09-13T03:10:04;4.53;;;4.17;;
1837;SDS011;918;50.796;6.772;2022-09-13T03:12:43;4.33;;;4.03;;
1837;SDS011;918;50.796;6.772;2022-09-13T03:15:24;3.83;;;3.53;;
1837;SDS011;918;50.796;6.772;2022-09-13T03:23:34;3.77;;;3.57;;
1837;SDS011;918;50.796;6.772;2022-09-13T03:31:34;5.07;;;3.57;;
1837;SDS011;918;50.796;6.772;2022-09-13T03:34:06;4.90;;;3.90;;
1837;SDS011;918;50.796;6.772;2022-09-13T03:36:48;3.57;;;3.27;;
1837;SDS011;918;50.796;6.772;2022-09-13T03:42:19;3.37;;;3.17;;
1837;SDS011;918;50.796;6.772;2022-09-13T03:44:48;3.60;;;3.40;;
1837;SDS011;918;50.796;6.772;2022-09-13T03:47:15;3.67;;;3.47;;
1837;SDS011;918;50.796;6.772;2022-09-13T03:49:41;4.03;;;3.70;;
1837;SDS011;918;50.796;6.772;2022-09-13T03:52:07;3.40;;;3.20;;
1837;SDS011;918;50.796;6.772;2022-09-13T03:54:33;3.80;;;3.60;;
1837;SDS011;918;50.796;6.772;2022-09-13T03:57:08;3.70;;;3.40;;
1837;SDS011;918;50.796;6.772;2022-09-13T03:59:42;3.90;;;3.60;;
1837;SDS011;918;50.796;6.772;2022-09-13T04:02:10;3.70;;;3.33;;
1837;SDS011;918;50.796;6.772;2022-09-13T04:04:36;3.73;;;3.43;;
1837;SDS011;918;50.796;6.772;2022-09-13T04:07:02;3.47;;;3.27;;
1837;SDS011;918;50.796;6.772;2022-09-13T04:09:29;3.47;;;3.27;;
1837;SDS011;918;50.796;6.772;2022-09-13T04:11:55;3.40;;;3.20;;
1837;SDS011;918;50.796;6.772;2022-09-13T04:14:20;3.33;;;3.13;;
1837;SDS011;918;50.796;6.772;2022-09-13T04:16:45;4.40;;;3.70;;
1837;SDS011;918;50.796;6.772;2022-09-13T04:19:10;3.17;;;2.93;;
1837;SDS011;918;50.796;6.772;2022-09-13T04:21:36;3.23;;;2.90;;
1837;SDS011;918;50.796;6.772;2022-09-13T04:24:02;3.50;;;3.20;;
1837;SDS011;918;50.796;6.772;2022-09-13T04:26:27;3.23;;;3.03;;
1837;SDS011;918;50.796;6.772;2022-09-13T04:28:53;3.43;;;3.17;;
1837;SDS011;918;50.796;6.772;2022-09-13T04:31:18;4.10;;;3.80;;
1837;SDS011;918;50.796;6.772;2022-09-13T04:33:43;3.67;;;3.47;;
1837;SDS011;918;50.796;6.772;2022-09-13T04:36:08;4.03;;;3.30;;
1837;SDS011;918;50.796;6.772;2022-09-13T04:38:34;3.80;;;3.50;;
1837;SDS011;918;50.796;6.772;2022-09-13T04:41:01;4.30;;;3.90;;
1837;SDS011;918;50.796;6.772;2022-09-13T04:43:26;3.50;;;3.20;;
1837;SDS011;918;50.796;6.772;2022-09-13T04:45:51;4.13;;;3.43;;
1837;SDS011;918;50.796;6.772;2022-09-13T04:48:16;3.80;;;3.50;;
1837;SDS011;918;50.796;6.772;2022-09-13T04:50:42;4.27;;;4.07;;
1837;SDS011;918;50.796;6.772;2022-09-13T04:53:08;3.37;;;3.13;;
1837;SDS011;918;50.796;6.772;2022-09-13T04:55:34;3.27;;;3.07;;
1837;SDS011;918;50.796;6.772;2022-09-13T04:58:00;4.37;;;4.00;;
1837;SDS011;918;50.796;6.772;2022-09-13T05:00:26;3.53;;;3.33;;
1837;SDS011;918;50.796;6.772;2022-09-13T05:02:55;4.00;;;3.70;;
1837;SDS011;918;50.796;6.772;2022-09-13T05:05:20;4.20;;;3.90;;
1837;SDS011;918;50.796;6.772;2022-09-13T05:07:48;3.87;;;3.57;;
1837;SDS011;918;50.796;6.772;2022-09-13T05:10:15;3.70;;;3.43;;
1837;SDS011;918;50.796;6.772;2022-09-13T05:12:40;3.63;;;3.40;;
1837;SDS011;918;50.796;6.772;2022-09-13T05:15:05;4.03;;;3.73;;
1837;SDS011;918;50.796;6.772;2022-09-13T05:17:31;3.90;;;3.60;;
1837;SDS011;918;50.796;6.772;2022-09-13T05:19:56;4.57;;;4.17;;
1837;SDS011;918;50.796;6.772;2022-09-13T05:22:21;3.13;;;2.90;;
1837;SDS011;918;50.796;6.772;2022-09-13T05:24:47;3.30;;;3.10;;
1837;SDS011;918;50.796;6.772;2022-09-13T05:27:12;3.70;;;3.40;;
1837;SDS011;918;50.796;6.772;2022-09-13T05:29:37;3.80;;;3.60;;
1837;SDS011;918;50.796;6.772;2022-09-13T05:32:02;4.13;;;3.77;;
1837;SDS011;918;50.796;6.772;2022-09-13T05:34:28;3.00;;;2.80;;
1837;SDS011;918;50.796;6.772;2022-09-13T05:36:53;3.90;;;3.60;;
1837;SDS011;918;50.796;6.772;2022-09-13T05:39:18;3.00;;;2.80;;
1837;SDS011;918;50.796;6.772;2022-09-13T05:41:45;3.30;;;3.10;;
1837;SDS011;918;50.796;6.772;2022-09-13T05:44:11;3.23;;;2.90;;
1837;SDS011;918;50.796;6.772;2022-09-13T05:46:36;3.63;;;3.37;;
1837;SDS011;918;50.796;6.772;2022-09-13T05:49:02;3.57;;;3.13;;
1837;SDS011;918;50.796;6.772;2022-09-13T05:51:27;6.97;;;3.40;;
1837;SDS011;918;50.796;6.772;2022-09-13T05:53:53;3.63;;;3.33;;
1837;SDS011;918;50.796;6.772;2022-09-13T05:56:20;5.20;;;3.63;;
1837;SDS011;918;50.796;6.772;2022-09-13T05:58:47;5.00;;;3.23;;
1837;SDS011;918;50.796;6.772;2022-09-13T06:01:14;4.30;;;3.00;;
1837;SDS011;918;50.796;6.772;2022-09-13T06:03:41;5.13;;;3.20;;
1837;SDS011;918;50.796;6.772;2022-09-13T06:06:06;5.63;;;3.50;;
1837;SDS011;918;50.796;6.772;2022-09-13T06:08:32;5.63;;;3.40;;
1837;SDS011;918;50.796;6.772;2022-09-13T06:10:59;4.30;;;3.03;;
1837;SDS011;918;50.796;6.772;2022-09-13T06:13:30;7.13;;;3.20;;
1837;SDS011;918;50.796;6.772;2022-09-13T06:15:56;4.90;;;2.90;;
1837;SDS011;918;50.796;6.772;2022-09-13T06:18:23;4.67;;;3.87;;
1837;SDS011;918;50.796;6.772;2022-09-13T06:20:50;4.33;;;3.50;;
1837;SDS011;918;50.796;6.772;2022-09-13T06:23:15;3.80;;;2.93;;
1837;SDS011;918;50.796;6.772;2022-09-13T06:25:41;3.37;;;3.10;;
1837;SDS011;918;50.796;6.772;2022-09-13T06:28:07;3.90;;;3.03;;
1837;SDS011;918;50.796;6.772;2022-09-13T06:30:33;3.50;;;3.20;;
1837;SDS011;918;50.796;6.772;2022-09-13T06:32:58;3.73;;;3.40;;
1837;SDS011;918;50.796;6.772;2022-09-13T06:35:24;4.20;;;3.10;;
1837;SDS011;918;50.796;6.772;2022-09-13T06:37:50;5.47;;;3.50;;
1837;SDS011;918;50.796;6.772;2022-09-13T06:40:15;8.20;;;3.90;;
1837;SDS011;918;50.796;6.772;2022-09-13T06:42:41;3.93;;;3.13;;
1837;SDS011;918;50.796;6.772;2022-09-13T06:45:07;4.43;;;3.13;;
1837;SDS011;918;50.796;6.772;2022-09-13T06:47:32;5.40;;;3.70;;
1837;SDS011;918;50.796;6.772;2022-09-13T06:49:57;3.40;;;3.00;;
1837;SDS011;918;50.796;6.772;2022-09-13T06:52:23;3.27;;;2.80;;
1837;SDS011;918;50.796;6.772;2022-09-13T06:54:49;3.67;;;3.37;;
1837;SDS011;918;50.796;6.772;2022-09-13T06:57:14;5.33;;;3.30;;
1837;SDS011;918;50.796;6.772;2022-09-13T06:59:39;6.30;;;3.30;;
1837;SDS011;918;50.796;6.772;2022-09-13T07:02:05;4.10;;;2.90;;
1837;SDS011;918;50.796;6.772;2022-09-13T07:04:30;3.73;;;3.20;;
1837;SDS011;918;50.796;6.772;2022-09-13T07:06:55;3.20;;;3.00;;
1837;SDS011;918;50.796;6.772;2022-09-13T07:09:21;3.60;;;2.80;;
1837;SDS011;918;50.796;6.772;2022-09-13T07:11:47;5.07;;;2.87;;
1837;SDS011;918;50.796;6.772;2022-09-13T07:14:14;3.20;;;2.90;;
1837;SDS011;918;50.796;6.772;2022-09-13T07:16:44;3.10;;;2.90;;
1837;SDS011;918;50.796;6.772;2022-09-13T07:19:15;3.20;;;2.77;;
1837;SDS011;918;50.796;6.772;2022-09-13T07:21:42;2.67;;;2.50;;
1837;SDS011;918;50.796;6.772;2022-09-13T07:24:07;3.37;;;3.10;;
1837;SDS011;918;50.796;6.772;2022-09-13T07:26:33;3.27;;;2.90;;
1837;SDS011;918;50.796;6.772;2022-09-13T07:28:59;2.33;;;2.23;;
1837;SDS011;918;50.796;6.772;2022-09-13T07:31:27;2.67;;;2.47;;
1837;SDS011;918;50.796;6.772;2022-09-13T07:33:57;3.17;;;2.47;;
1837;SDS011;918;50.796;6.772;2022-09-13T07:36:24;3.00;;;2.73;;
1837;SDS011;918;50.796;6.772;2022-09-13T07:38:50;2.57;;;2.37;;
1837;SDS011;918;50.796;6.772;2022-09-13T07:41:16;5.13;;;2.73;;
1837;SDS011;918;50.796;6.772;2022-09-13T07:43:43;3.23;;;2.33;;
1837;SDS011;918;50.796;6.772;2022-09-13T07:46:12;2.33;;;2.23;;
1837;SDS011;918;50.796;6.772;2022-09-13T07:48:39;3.33;;;2.30;;
1837;SDS011;918;50.796;6.772;2022-09-13T07:51:06;1.93;;;1.83;;
1837;SDS011;918;50.796;6.772;2022-09-13T07:53:39;2.50;;;2.30;;
1837;SDS011;918;50.796;6.772;2022-09-13T07:58:35;5.80;;;2.47;;
1837;SDS011;918;50.796;6.772;2022-09-13T08:01:05;1.60;;;1.50;;
1837;SDS011;918;50.796;6.772;2022-09-13T08:03:33;2.70;;;1.90;;
1837;SDS011;918;50.796;6.772;2022-09-13T08:05:59;4.47;;;2.27;;
1837;SDS011;918;50.796;6.772;2022-09-13T08:08:25;2.63;;;2.30;;
1837;SDS011;918;50.796;6.772;2022-09-13T08:10:50;1.90;;;1.80;;
1837;SDS011;918;50.796;6.772;2022-09-13T08:13:16;4.10;;;1.73;;
1837;SDS011;918;50.796;6.772;2022-09-13T08:15:41;1.80;;;1.70;;
1837;SDS011;918;50.796;6.772;2022-09-13T08:18:07;1.97;;;1.87;;
1837;SDS011;918;50.796;6.772;2022-09-13T08:20:37;1.97;;;1.87;;
1837;SDS011;918;50.796;6.772;2022-09-13T08:23:03;2.73;;;1.90;;
1837;SDS011;918;50.796;6.772;2022-09-13T08:25:31;5.43;;;1.80;;
1837;SDS011;918;50.796;6.772;2022-09-13T08:27:58;4.00;;;1.83;;
1837;SDS011;918;50.796;6.772;2022-09-13T08:30:24;1.87;;;1.33;;
1837;SDS011;918;50.796;6.772;2022-09-13T08:32:52;3.97;;;1.40;;
1837;SDS011;918;50.796;6.772;2022-09-13T08:35:17;1.50;;;1.40;;
1837;SDS011;918;50.796;6.772;2022-09-13T08:37:43;1.47;;;1.43;;
1837;SDS011;918;50.796;6.772;2022-09-13T08:40:08;1.33;;;1.23;;
1837;SDS011;918;50.796;6.772;2022-09-13T08:42:40;3.13;;;1.57;;
1837;SDS011;918;50.796;6.772;2022-09-13T08:45:14;2.43;;;2.00;;
1837;SDS011;918;50.796;6.772;2022-09-13T08:47:42;1.63;;;1.53;;
1837;SDS011;918;50.796;6.772;2022-09-13T08:50:16;1.27;;;1.17;;
1837;SDS011;918;50.796;6.772;2022-09-13T08:53:27;1.93;;;1.30;;
1837;SDS011;918;50.796;6.772;2022-09-13T09:06:53;1.40;;;1.30;;
1837;SDS011;918;50.796;6.772;2022-09-13T09:09:57;1.57;;;1.47;;
1837;SDS011;918;50.796;6.772;2022-09-13T09:15:00;3.03;;;1.67;;
1837;SDS011;918;50.796;6.772;2022-09-13T09:17:31;1.90;;;1.77;;
1837;SDS011;918;50.796;6.772;2022-09-13T09:23:02;1.70;;;1.60;;
1837;SDS011;918;50.796;6.772;2022-09-13T09:25:30;2.27;;;2.00;;
1837;SDS011;918;50.796;6.772;2022-09-13T09:27:58;2.63;;;1.77;;
1837;SDS011;918;50.796;6.772;2022-09-13T09:30:33;1.60;;;1.50;;
1837;SDS011;918;50.796;6.772;2022-09-13T09:33:05;2.10;;;1.73;;
1837;SDS011;918;50.796;6.772;2022-09-13T09:35:50;2.70;;;1.80;;
1837;SDS011;918;50.796;6.772;2022-09-13T09:41:06;2.90;;;1.77;;
1837;SDS011;918;50.796;6.772;2022-09-13T09:43:38;6.10;;;1.90;;
1837;SDS011;918;50.796;6.772;2022-09-13T09:46:08;2.37;;;1.97;;
1837;SDS011;918;50.796;6.772;2022-09-13T09:48:42;2.07;;;1.90;;
1837;SDS011;918;50.796;6.772;2022-09-13T09:51:10;1.90;;;1.80;;
1837;SDS011;918;50.796;6.772;2022-09-13T09:53:41;1.87;;;1.67;;
1837;SDS011;918;50.796;6.772;2022-09-13T09:56:20;1.60;;;1.50;;
1837;SDS011;918;50.796;6.772;2022-09-13T09:58:49;2.50;;;1.83;;
1837;SDS011;918;50.796;6.772;2022-09-13T10:01:24;4.67;;;2.20;;
1837;SDS011;918;50.796;6.772;2022-09-13T10:03:51;2.60;;;1.63;;
1837;SDS011;918;50.796;6.772;2022-09-13T10:06:22;3.33;;;1.97;;
1837;SDS011;918;50.796;6.772;2022-09-13T10:09:05;2.87;;;2.00;;
1837;SDS011;918;50.796;6.772;2022-09-13T10:11:45;1.40;;;1.30;;
1837;SDS011;918;50.796;6.772;2022-09-13T10:19:49;2.27;;;1.57;;
1837;SDS011;918;50.796;6.772;2022-09-13T10:22:16;1.90;;;1.43;;
1837;SDS011;918;50.796;6.772;2022-09-13T10:24:42;2.10;;;1.90;;
1837;SDS011;918;50.796;6.772;2022-09-13T10:30:04;2.00;;;1.60;;
1837;SDS011;918;50.796;6.772;2022-09-13T10:32:30;1.90;;;1.80;;
1837;SDS011;918;50.796;6.772;2022-09-13T10:34:58;2.20;;;1.90;;
1837;SDS011;918;50.796;6.772;2022-09-13T10:37:31;2.93;;;1.63;;
1837;SDS011;918;50.796;6.772;2022-09-13T10:40:06;2.83;;;2.00;;
1837;SDS011;918;50.796;6.772;2022-09-13T10:42:35;1.90;;;1.60;;
1837;SDS011;918;50.796;6.772;2022-09-13T10:45:04;2.50;;;1.90;;
1837;SDS011;918;50.796;6.772;2022-09-13T10:52:49;3.90;;;2.00;;
1837;SDS011;918;50.796;6.772;2022-09-13T10:57:42;2.20;;;2.10;;
1837;SDS011;918;50.796;6.772;2022-09-13T11:00:09;2.20;;;2.00;;
1837;SDS011;918;50.796;6.772;2022-09-13T11:02:48;3.57;;;2.10;;
1837;SDS011;918;50.796;6.772;2022-09-13T11:05:38;2.73;;;1.80;;
1837;SDS011;918;50.796;6.772;2022-09-13T11:08:14;3.77;;;1.80;;
1837;SDS011;918;50.796;6.772;2022-09-13T11:35:08;2.57;;;2.00;;
1837;SDS011;918;50.796;6.772;2022-09-13T11:37:48;4.17;;;2.40;;
1837;SDS011;918;50.796;6.772;2022-09-13T11:40:42;3.33;;;2.50;;
1837;SDS011;918;50.796;6.772;2022-09-13T11:46:08;3.93;;;2.00;;
1837;SDS011;918;50.796;6.772;2022-09-13T11:51:56;2.03;;;1.93;;
1837;SDS011;918;50.796;6.772;2022-09-13T11:54:54;3.77;;;1.80;;
1837;SDS011;918;50.796;6.772;2022-09-13T12:00:08;3.23;;;1.90;;
1837;SDS011;918;50.796;6.772;2022-09-13T12:02:57;3.10;;;2.67;;
1837;SDS011;918;50.796;6.772;2022-09-13T12:05:55;2.60;;;2.40;;
1837;SDS011;918;50.796;6.772;2022-09-13T12:08:24;2.70;;;1.87;;
1837;SDS011;918;50.796;6.772;2022-09-13T12:10:56;1.87;;;1.77;;
1837;SDS011;918;50.796;6.772;2022-09-13T12:13:24;3.10;;;2.03;;
1837;SDS011;918;50.796;6.772;2022-09-13T12:16:00;2.60;;;2.10;;
1837;SDS011;918;50.796;6.772;2022-09-13T12:19:04;2.40;;;2.20;;
1837;SDS011;918;50.796;6.772;2022-09-13T12:21:31;3.53;;;2.10;;
1837;SDS011;918;50.796;6.772;2022-09-13T12:27:08;2.40;;;2.07;;
1837;SDS011;918;50.796;6.772;2022-09-13T12:29:50;2.27;;;2.10;;
1837;SDS011;918;50.796;6.772;2022-09-13T12:32:20;2.77;;;2.43;;
1837;SDS011;918;50.796;6.772;2022-09-13T12:34:53;3.17;;;2.00;;
1837;SDS011;918;50.796;6.772;2022-09-13T12:37:33;2.00;;;1.90;;
1837;SDS011;918;50.796;6.772;2022-09-13T12:42:46;2.83;;;2.47;;
1837;SDS011;918;50.796;6.772;2022-09-13T12:50:55;2.83;;;1.70;;
1837;SDS011;918;50.796;6.772;2022-09-13T12:53:35;2.23;;;2.00;;
1837;SDS011;918;50.796;6.772;2022-09-13T12:56:12;2.57;;;2.13;;
1837;SDS011;918;50.796;6.772;2022-09-13T13:01:28;3.50;;;1.83;;
1837;SDS011;918;50.796;6.772;2022-09-13T13:04:12;2.20;;;2.00;;
1837;SDS011;918;50.796;6.772;2022-09-13T13:06:51;4.03;;;2.20;;
1837;SDS011;918;50.796;6.772;2022-09-13T13:12:40;2.83;;;1.87;;
1837;SDS011;918;50.796;6.772;2022-09-13T13:15:07;3.07;;;2.17;;
1837;SDS011;918;50.796;6.772;2022-09-13T13:17:52;1.90;;;1.70;;
1837;SDS011;918;50.796;6.772;2022-09-13T13:33:49;3.63;;;2.43;;
1837;SDS011;918;50.796;6.772;2022-09-13T13:36:22;2.43;;;2.00;;
1837;SDS011;918;50.796;6.772;2022-09-13T13:38:52;2.03;;;1.93;;
1837;SDS011;918;50.796;6.772;2022-09-13T13:46:40;2.43;;;2.17;;
1837;SDS011;918;50.796;6.772;2022-09-13T14:00:14;1.87;;;1.77;;
1837;SDS011;918;50.796;6.772;2022-09-13T14:10:48;1.60;;;1.50;;
1837;SDS011;918;50.796;6.772;2022-09-13T14:19:23;2.30;;;1.60;;
1837;SDS011;918;50.796;6.772;2022-09-13T14:22:04;1.40;;;1.30;;
1837;SDS011;918;50.796;6.772;2022-09-13T14:24:29;1.67;;;1.57;;
1837;SDS011;918;50.796;6.772;2022-09-13T14:27:01;1.53;;;1.47;;
1837;SDS011;918;50.796;6.772;2022-09-13T14:29:27;1.47;;;1.40;;
1837;SDS011;918;50.796;6.772;2022-09-13T14:31:53;1.60;;;1.50;;
1837;SDS011;918;50.796;6.772;2022-09-13T14:34:26;2.00;;;1.47;;
1837;SDS011;918;50.796;6.772;2022-09-13T14:36:55;1.37;;;1.37;;
1837;SDS011;918;50.796;6.772;2022-09-13T14:39:22;1.50;;;1.40;;
1837;SDS011;918;50.796;6.772;2022-09-13T14:41:56;2.03;;;1.03;;
1837;SDS011;918;50.796;6.772;2022-09-13T14:44:26;1.37;;;1.23;;
1837;SDS011;918;50.796;6.772;2022-09-13T14:47:06;1.13;;;1.03;;
1837;SDS011;918;50.796;6.772;2022-09-13T14:49:38;1.30;;;1.20;;
1837;SDS011;918;50.796;6.772;2022-09-13T14:52:09;1.10;;;1.10;;
1837;SDS011;918;50.796;6.772;2022-09-13T14:54:43;1.10;;;1.10;;
1837;SDS011;918;50.796;6.772;2022-09-13T14:57:20;1.23;;;1.13;;
1837;SDS011;918;50.796;6.772;2022-09-13T14:59:50;1.10;;;1.00;;
1837;SDS011;918;50.796;6.772;2022-09-13T15:02:22;1.50;;;1.40;;
1837;SDS011;918;50.796;6.772;2022-09-13T15:04:50;1.70;;;1.60;;
1837;SDS011;918;50.796;6.772;2022-09-13T15:07:19;1.50;;;1.20;;
1837;SDS011;918;50.796;6.772;2022-09-13T15:10:06;1.40;;;1.20;;
1837;SDS011;918;50.796;6.772;2022-09-13T15:12:34;1.87;;;0.90;;
1837;SDS011;918;50.796;6.772;2022-09-13T15:15:14;1.10;;;1.00;;
1837;SDS011;918;50.796;6.772;2022-09-13T15:18:02;1.33;;;1.13;;
1837;SDS011;918;50.796;6.772;2022-09-13T15:20:44;1.57;;;1.10;;
1837;SDS011;918;50.796;6.772;2022-09-13T15:23:13;1.33;;;1.30;;
1837;SDS011;918;50.796;6.772;2022-09-13T15:25:40;1.10;;;0.97;;
1837;SDS011;918;50.796;6.772;2022-09-13T15:28:15;1.80;;;1.40;;
1837;SDS011;918;50.796;6.772;2022-09-13T15:30:45;1.00;;;1.00;;
1837;SDS011;918;50.796;6.772;2022-09-13T15:35:37;2.20;;;1.53;;
1837;SDS011;918;50.796;6.772;2022-09-13T15:38:14;1.97;;;1.20;;
1837;SDS011;918;50.796;6.772;2022-09-13T15:40:43;1.27;;;1.20;;
1837;SDS011;918;50.796;6.772;2022-09-13T15:43:12;1.30;;;1.20;;
1837;SDS011;918;50.796;6.772;2022-09-13T15:45:37;3.70;;;1.50;;
1837;SDS011;918;50.796;6.772;2022-09-13T15:48:03;1.60;;;1.20;;
1837;SDS011;918;50.796;6.772;2022-09-13T15:50:29;1.87;;;1.60;;
1837;SDS011;918;50.796;6.772;2022-09-13T15:52:59;1.47;;;1.37;;
1837;SDS011;918;50.796;6.772;2022-09-13T15:55:25;2.47;;;1.50;;
1837;SDS011;918;50.796;6.772;2022-09-13T15:57:51;1.93;;;1.10;;
1837;SDS011;918;50.796;6.772;2022-09-13T16:00:17;2.30;;;1.40;;
1837;SDS011;918;50.796;6.772;2022-09-13T16:02:47;2.20;;;1.20;;
1837;SDS011;918;50.796;6.772;2022-09-13T16:05:12;1.53;;;1.43;;
1837;SDS011;918;50.796;6.772;2022-09-13T16:07:38;2.40;;;2.20;;
1837;SDS011;918;50.796;6.772;2022-09-13T16:10:12;1.70;;;1.37;;
1837;SDS011;918;50.796;6.772;2022-09-13T16:12:39;2.73;;;2.53;;
1837;SDS011;918;50.796;6.772;2022-09-13T16:15:05;2.00;;;1.90;;
1837;SDS011;918;50.796;6.772;2022-09-13T16:17:31;2.50;;;2.30;;
1837;SDS011;918;50.796;6.772;2022-09-13T16:19:57;4.33;;;3.03;;
1837;SDS011;918;50.796;6.772;2022-09-13T16:22:22;3.80;;;3.40;;
1837;SDS011;918;50.796;6.772;2022-09-13T16:24:47;3.43;;;2.93;;
1837;SDS011;918;50.796;6.772;2022-09-13T16:27:13;3.80;;;3.47;;
1837;SDS011;918;50.796;6.772;2022-09-13T16:29:40;6.53;;;4.73;;
1837;SDS011;918;50.796;6.772;2022-09-13T16:32:06;4.47;;;4.03;;
1837;SDS011;918;50.796;6.772;2022-09-13T16:34:31;3.77;;;3.47;;
1837;SDS011;918;50.796;6.772;2022-09-13T16:36:57;5.73;;;4.03;;
1837;SDS011;918;50.796;6.772;2022-09-13T16:39:22;7.67;;;3.60;;
1837;SDS011;918;50.796;6.772;2022-09-13T16:41:48;4.50;;;3.77;;
1837;SDS011;918;50.796;6.772;2022-09-13T16:44:13;4.23;;;3.63;;
1837;SDS011;918;50.796;6.772;2022-09-13T16:46:39;6.43;;;4.10;;
1837;SDS011;918;50.796;6.772;2022-09-13T16:49:04;4.20;;;3.90;;
1837;SDS011;918;50.796;6.772;2022-09-13T16:51:29;3.97;;;3.67;;
1837;SDS011;918;50.796;6.772;2022-09-13T16:53:55;4.63;;;4.23;;
1837;SDS011;918;50.796;6.772;2022-09-13T16:56:21;5.33;;;4.73;;
1837;SDS011;918;50.796;6.772;2022-09-13T16:58:48;4.43;;;4.07;;
1837;SDS011;918;50.796;6.772;2022-09-13T17:01:17;4.67;;;4.37;;
1837;SDS011;918;50.796;6.772;2022-09-13T17:04:01;4.57;;;4.03;;
1837;SDS011;918;50.796;6.772;2022-09-13T17:06:26;7.70;;;5.17;;
1837;SDS011;918;50.796;6.772;2022-09-13T17:08:53;4.90;;;4.47;;
1837;SDS011;918;50.796;6.772;2022-09-13T17:11:21;3.90;;;3.70;;
1837;SDS011;918;50.796;6.772;2022-09-13T17:13:47;5.30;;;4.50;;
1837;SDS011;918;50.796;6.772;2022-09-13T17:16:18;5.43;;;3.73;;
1837;SDS011;918;50.796;6.772;2022-09-13T17:18:45;3.40;;;3.20;;
1837;SDS011;918;50.796;6.772;2022-09-13T17:21:11;5.63;;;4.77;;
1837;SDS011;918;50.796;6.772;2022-09-13T17:23:36;4.40;;;3.73;;
1837;SDS011;918;50.796;6.772;2022-09-13T17:26:01;3.70;;;3.40;;
1837;SDS011;918;50.796;6.772;2022-09-13T17:28:27;3.83;;;3.33;;
1837;SDS011;918;50.796;6.772;2022-09-13T17:30:52;3.50;;;3.13;;
1837;SDS011;918;50.796;6.772;2022-09-13T17:33:17;3.77;;;3.17;;
1837;SDS011;918;50.796;6.772;2022-09-13T17:35:42;3.40;;;3.10;;
1837;SDS011;918;50.796;6.772;2022-09-13T17:38:08;3.93;;;3.67;;
1837;SDS011;918;50.796;6.772;2022-09-13T17:40:33;4.30;;;2.80;;
1837;SDS011;918;50.796;6.772;2022-09-13T17:42:59;3.53;;;3.00;;
1837;SDS011;918;50.796;6.772;2022-09-13T17:45:25;3.20;;;2.60;;
1837;SDS011;918;50.796;6.772;2022-09-13T17:47:51;4.07;;;3.77;;
1837;SDS011;918;50.796;6.772;2022-09-13T17:50:17;4.93;;;3.00;;
1837;SDS011;918;50.796;6.772;2022-09-13T17:52:42;3.10;;;2.90;;
1837;SDS011;918;50.796;6.772;2022-09-13T17:55:07;2.90;;;2.70;;
1837;SDS011;918;50.796;6.772;2022-09-13T17:57:33;3.17;;;2.77;;
1837;SDS011;918;50.796;6.772;2022-09-13T17:59:58;2.67;;;2.47;;
1837;SDS011;918;50.796;6.772;2022-09-13T18:02:24;3.30;;;2.87;;
1837;SDS011;918;50.796;6.772;2022-09-13T18:04:51;4.07;;;3.57;;
1837;SDS011;918;50.796;6.772;2022-09-13T18:07:16;4.33;;;3.53;;
1837;SDS011;918;50.796;6.772;2022-09-13T18:09:42;3.80;;;3.50;;
1837;SDS011;918;50.796;6.772;2022-09-13T18:12:08;4.70;;;4.40;;
1837;SDS011;918;50.796;6.772;2022-09-13T18:14:33;4.57;;;4.17;;
1837;SDS011;918;50.796;6.772;2022-09-13T18:16:59;4.10;;;3.70;;
1837;SDS011;918;50.796;6.772;2022-09-13T18:19:24;4.13;;;3.83;;
1837;SDS011;918;50.796;6.772;2022-09-13T18:21:49;5.20;;;3.23;;
1837;SDS011;918;50.796;6.772;2022-09-13T18:24:15;4.43;;;3.40;;
1837;SDS011;918;50.796;6.772;2022-09-13T18:26:40;3.53;;;3.20;;
1837;SDS011;918;50.796;6.772;2022-09-13T18:29:08;3.30;;;3.03;;
1837;SDS011;918;50.796;6.772;2022-09-13T18:31:35;3.53;;;3.23;;
1837;SDS011;918;50.796;6.772;2022-09-13T18:34:02;3.83;;;3.50;;
1837;SDS011;918;50.796;6.772;2022-09-13T18:36:28;5.13;;;3.70;;
1837;SDS011;918;50.796;6.772;2022-09-13T18:38:55;4.33;;;3.37;;
1837;SDS011;918;50.796;6.772;2022-09-13T18:41:21;3.63;;;3.13;;
1837;SDS011;918;50.796;6.772;2022-09-13T18:43:51;3.53;;;3.23;;
1837;SDS011;918;50.796;6.772;2022-09-13T18:46:18;3.40;;;3.10;;